<?xml version="1.0" encoding="UTF-8" standalone="no" ?>
<gpx xmlns="http://www.topografix.com/GPX/1/1" xmlns:xsi="http://www.w3.org/2001/XMLSchema-instance" xsi:schemaLocation="http://www.topografix.com/GPX/1/1 http://www.topografix.com/GPX/1/1/gpx.xsd" version="1.1" creator="VisuGPX - https://www.visugpx.com">
  <metadata>
    <name>jeudi 11 décembre 2014 candélie</name>
    <desc><![CDATA[montée magnnac, cuisine , bois, friche]]></desc>
  </metadata>
  <wpt lat="44.23551" lon="0.66105">
    <ele>155</ele>
    <name><![CDATA[Castel Rey]]></name>
    <desc><![CDATA[Castel Rey]]></desc>
    <cmt><![CDATA[Castel Rey]]></cmt>
  </wpt>
  <wpt lat="44.22217" lon="0.66298">
    <ele>64</ele>
    <name><![CDATA[Voie ferrée]]></name>
    <desc><![CDATA[Voie ferrée]]></desc>
    <cmt><![CDATA[Voie ferrée]]></cmt>
  </wpt>
  <trk>
    <name><![CDATA[ACTIVE LOG 001]]></name>
    <trkseg>
      <trkpt lat="44.2325" lon="0.6822">
        <ele>62.142334</ele>
        <time>2014-12-11T13:02:05Z</time>
      </trkpt>
      <trkpt lat="44.23245" lon="0.68187">
        <ele>69.8328857</ele>
        <time>2014-12-11T13:02:27Z</time>
      </trkpt>
      <trkpt lat="44.23228" lon="0.68172">
        <ele>75.1202393</ele>
        <time>2014-12-11T13:02:48Z</time>
      </trkpt>
      <trkpt lat="44.23226" lon="0.68171">
        <ele>74.6395264</ele>
        <time>2014-12-11T13:02:50Z</time>
      </trkpt>
      <trkpt lat="44.23213" lon="0.68159">
        <ele>74.1588135</ele>
        <time>2014-12-11T13:03:08Z</time>
      </trkpt>
      <trkpt lat="44.23206" lon="0.68146">
        <ele>75.1202393</ele>
        <time>2014-12-11T13:03:29Z</time>
      </trkpt>
      <trkpt lat="44.23205" lon="0.68144">
        <ele>73.6782227</ele>
        <time>2014-12-11T13:03:48Z</time>
      </trkpt>
      <trkpt lat="44.23223" lon="0.68134">
        <ele>67.9102783</ele>
        <time>2014-12-11T13:04:10Z</time>
      </trkpt>
      <trkpt lat="44.23236" lon="0.68112">
        <ele>65.5070801</ele>
        <time>2014-12-11T13:04:30Z</time>
      </trkpt>
      <trkpt lat="44.23242" lon="0.68107">
        <ele>65.5070801</ele>
        <time>2014-12-11T13:04:37Z</time>
      </trkpt>
      <trkpt lat="44.23253" lon="0.68097">
        <ele>62.6229248</ele>
        <time>2014-12-11T13:04:51Z</time>
      </trkpt>
      <trkpt lat="44.23273" lon="0.68089">
        <ele>61.1810303</ele>
        <time>2014-12-11T13:05:06Z</time>
      </trkpt>
      <trkpt lat="44.23276" lon="0.6808">
        <ele>62.6229248</ele>
        <time>2014-12-11T13:05:11Z</time>
      </trkpt>
      <trkpt lat="44.23276" lon="0.68073">
        <ele>63.5843506</ele>
        <time>2014-12-11T13:05:15Z</time>
      </trkpt>
      <trkpt lat="44.23274" lon="0.68066">
        <ele>64.5456543</ele>
        <time>2014-12-11T13:05:19Z</time>
      </trkpt>
      <trkpt lat="44.23274" lon="0.68057">
        <ele>65.0263672</ele>
        <time>2014-12-11T13:05:25Z</time>
      </trkpt>
      <trkpt lat="44.23271" lon="0.68034">
        <ele>70.7941895</ele>
        <time>2014-12-11T13:05:40Z</time>
      </trkpt>
      <trkpt lat="44.23276" lon="0.68027">
        <ele>69.8328857</ele>
        <time>2014-12-11T13:05:52Z</time>
      </trkpt>
      <trkpt lat="44.23281" lon="0.68019">
        <ele>66.9489746</ele>
        <time>2014-12-11T13:06:03Z</time>
      </trkpt>
      <trkpt lat="44.23282" lon="0.67998">
        <ele>64.5456543</ele>
        <time>2014-12-11T13:06:17Z</time>
      </trkpt>
      <trkpt lat="44.23308" lon="0.67984">
        <ele>62.6229248</ele>
        <time>2014-12-11T13:06:42Z</time>
      </trkpt>
      <trkpt lat="44.23319" lon="0.67977">
        <ele>61.1810303</ele>
        <time>2014-12-11T13:06:53Z</time>
      </trkpt>
      <trkpt lat="44.23327" lon="0.67972">
        <ele>60.2197266</ele>
        <time>2014-12-11T13:07:02Z</time>
      </trkpt>
      <trkpt lat="44.23333" lon="0.67972">
        <ele>60.7003174</ele>
        <time>2014-12-11T13:07:08Z</time>
      </trkpt>
      <trkpt lat="44.23337" lon="0.67972">
        <ele>60.7003174</ele>
        <time>2014-12-11T13:07:11Z</time>
      </trkpt>
      <trkpt lat="44.23357" lon="0.67971">
        <ele>60.7003174</ele>
        <time>2014-12-11T13:07:28Z</time>
      </trkpt>
      <trkpt lat="44.23377" lon="0.67972">
        <ele>57.8165283</ele>
        <time>2014-12-11T13:07:47Z</time>
      </trkpt>
      <trkpt lat="44.23379" lon="0.67975">
        <ele>56.3745117</ele>
        <time>2014-12-11T13:07:51Z</time>
      </trkpt>
      <trkpt lat="44.23382" lon="0.67979">
        <ele>53.9711914</ele>
        <time>2014-12-11T13:07:55Z</time>
      </trkpt>
      <trkpt lat="44.23386" lon="0.67981">
        <ele>54.4517822</ele>
        <time>2014-12-11T13:07:59Z</time>
      </trkpt>
      <trkpt lat="44.23404" lon="0.67995">
        <ele>55.8937988</ele>
        <time>2014-12-11T13:08:17Z</time>
      </trkpt>
      <trkpt lat="44.23408" lon="0.67991">
        <ele>57.3358154</ele>
        <time>2014-12-11T13:08:21Z</time>
      </trkpt>
      <trkpt lat="44.23414" lon="0.67949">
        <ele>59.7391357</ele>
        <time>2014-12-11T13:08:48Z</time>
      </trkpt>
      <trkpt lat="44.23421" lon="0.67896">
        <ele>63.1036377</ele>
        <time>2014-12-11T13:09:20Z</time>
      </trkpt>
      <trkpt lat="44.23427" lon="0.67854">
        <ele>62.6229248</ele>
        <time>2014-12-11T13:09:47Z</time>
      </trkpt>
      <trkpt lat="44.23432" lon="0.67813">
        <ele>62.142334</ele>
        <time>2014-12-11T13:10:14Z</time>
      </trkpt>
      <trkpt lat="44.23439" lon="0.67773">
        <ele>63.1036377</ele>
        <time>2014-12-11T13:10:40Z</time>
      </trkpt>
      <trkpt lat="44.23449" lon="0.6773">
        <ele>65.9876709</ele>
        <time>2014-12-11T13:11:08Z</time>
      </trkpt>
      <trkpt lat="44.23454" lon="0.67689">
        <ele>66.9489746</ele>
        <time>2014-12-11T13:11:36Z</time>
      </trkpt>
      <trkpt lat="44.23426" lon="0.67663">
        <ele>65.5070801</ele>
        <time>2014-12-11T13:12:05Z</time>
      </trkpt>
      <trkpt lat="44.2342" lon="0.6766">
        <ele>65.0263672</ele>
        <time>2014-12-11T13:12:10Z</time>
      </trkpt>
      <trkpt lat="44.23409" lon="0.67641">
        <ele>66.4682617</ele>
        <time>2014-12-11T13:12:27Z</time>
      </trkpt>
      <trkpt lat="44.23388" lon="0.67631">
        <ele>65.5070801</ele>
        <time>2014-12-11T13:12:45Z</time>
      </trkpt>
      <trkpt lat="44.23367" lon="0.67609">
        <ele>72.2362061</ele>
        <time>2014-12-11T13:13:10Z</time>
      </trkpt>
      <trkpt lat="44.23352" lon="0.67585">
        <ele>77.5234375</ele>
        <time>2014-12-11T13:13:30Z</time>
      </trkpt>
      <trkpt lat="44.23336" lon="0.67559">
        <ele>74.6395264</ele>
        <time>2014-12-11T13:13:51Z</time>
      </trkpt>
      <trkpt lat="44.23318" lon="0.67531">
        <ele>78.9654541</ele>
        <time>2014-12-11T13:14:15Z</time>
      </trkpt>
      <trkpt lat="44.23289" lon="0.67508">
        <ele>73.1976318</ele>
        <time>2014-12-11T13:14:41Z</time>
      </trkpt>
      <trkpt lat="44.23272" lon="0.67494">
        <ele>73.6782227</ele>
        <time>2014-12-11T13:14:58Z</time>
      </trkpt>
      <trkpt lat="44.23251" lon="0.67475">
        <ele>74.1588135</ele>
        <time>2014-12-11T13:15:20Z</time>
      </trkpt>
      <trkpt lat="44.23234" lon="0.67449">
        <ele>75.1202393</ele>
        <time>2014-12-11T13:15:43Z</time>
      </trkpt>
      <trkpt lat="44.23221" lon="0.67421">
        <ele>68.3908691</ele>
        <time>2014-12-11T13:16:04Z</time>
      </trkpt>
      <trkpt lat="44.2322" lon="0.67417">
        <ele>69.8328857</ele>
        <time>2014-12-11T13:16:07Z</time>
      </trkpt>
      <trkpt lat="44.23211" lon="0.67398">
        <ele>75.6008301</ele>
        <time>2014-12-11T13:16:22Z</time>
      </trkpt>
      <trkpt lat="44.23192" lon="0.67368">
        <ele>69.3522949</ele>
        <time>2014-12-11T13:16:47Z</time>
      </trkpt>
      <trkpt lat="44.23176" lon="0.67338">
        <ele>64.5456543</ele>
        <time>2014-12-11T13:17:08Z</time>
      </trkpt>
      <trkpt lat="44.23165" lon="0.67313">
        <ele>64.0650635</ele>
        <time>2014-12-11T13:17:27Z</time>
      </trkpt>
      <trkpt lat="44.23159" lon="0.673">
        <ele>63.5843506</ele>
        <time>2014-12-11T13:17:39Z</time>
      </trkpt>
      <trkpt lat="44.23152" lon="0.67285">
        <ele>66.4682617</ele>
        <time>2014-12-11T13:17:51Z</time>
      </trkpt>
      <trkpt lat="44.23149" lon="0.67278">
        <ele>66.9489746</ele>
        <time>2014-12-11T13:17:56Z</time>
      </trkpt>
      <trkpt lat="44.23138" lon="0.67254">
        <ele>65.0263672</ele>
        <time>2014-12-11T13:18:16Z</time>
      </trkpt>
      <trkpt lat="44.23136" lon="0.67249">
        <ele>65.9876709</ele>
        <time>2014-12-11T13:18:19Z</time>
      </trkpt>
      <trkpt lat="44.23134" lon="0.67243">
        <ele>68.3908691</ele>
        <time>2014-12-11T13:18:23Z</time>
      </trkpt>
      <trkpt lat="44.23144" lon="0.67214">
        <ele>72.7169189</ele>
        <time>2014-12-11T13:18:47Z</time>
      </trkpt>
      <trkpt lat="44.23161" lon="0.67189">
        <ele>73.1976318</ele>
        <time>2014-12-11T13:19:15Z</time>
      </trkpt>
      <trkpt lat="44.23174" lon="0.6717">
        <ele>74.1588135</ele>
        <time>2014-12-11T13:19:36Z</time>
      </trkpt>
      <trkpt lat="44.23186" lon="0.67146">
        <ele>76.0814209</ele>
        <time>2014-12-11T13:20:00Z</time>
      </trkpt>
      <trkpt lat="44.23206" lon="0.67116">
        <ele>78.9654541</ele>
        <time>2014-12-11T13:20:28Z</time>
      </trkpt>
      <trkpt lat="44.23224" lon="0.67087">
        <ele>80.4074707</ele>
        <time>2014-12-11T13:20:54Z</time>
      </trkpt>
      <trkpt lat="44.23239" lon="0.67064">
        <ele>81.3687744</ele>
        <time>2014-12-11T13:21:14Z</time>
      </trkpt>
      <trkpt lat="44.23249" lon="0.67056">
        <ele>82.3300781</ele>
        <time>2014-12-11T13:21:26Z</time>
      </trkpt>
      <trkpt lat="44.23263" lon="0.67071">
        <ele>86.175293</ele>
        <time>2014-12-11T13:21:50Z</time>
      </trkpt>
      <trkpt lat="44.23264" lon="0.67095">
        <ele>90.5013428</ele>
        <time>2014-12-11T13:22:15Z</time>
      </trkpt>
      <trkpt lat="44.23266" lon="0.67118">
        <ele>91.9432373</ele>
        <time>2014-12-11T13:22:36Z</time>
      </trkpt>
      <trkpt lat="44.23266" lon="0.67123">
        <ele>92.4239502</ele>
        <time>2014-12-11T13:22:41Z</time>
      </trkpt>
      <trkpt lat="44.23268" lon="0.67155">
        <ele>93.3851318</ele>
        <time>2014-12-11T13:23:05Z</time>
      </trkpt>
      <trkpt lat="44.2328" lon="0.67154">
        <ele>94.8271484</ele>
        <time>2014-12-11T13:23:22Z</time>
      </trkpt>
      <trkpt lat="44.23289" lon="0.6714">
        <ele>96.2692871</ele>
        <time>2014-12-11T13:23:37Z</time>
      </trkpt>
      <trkpt lat="44.23306" lon="0.67123">
        <ele>97.2304688</ele>
        <time>2014-12-11T13:23:59Z</time>
      </trkpt>
      <trkpt lat="44.23325" lon="0.67104">
        <ele>97.7111816</ele>
        <time>2014-12-11T13:24:26Z</time>
      </trkpt>
      <trkpt lat="44.23342" lon="0.67092">
        <ele>98.6724854</ele>
        <time>2014-12-11T13:24:47Z</time>
      </trkpt>
      <trkpt lat="44.23363" lon="0.67074">
        <ele>99.1530762</ele>
        <time>2014-12-11T13:25:12Z</time>
      </trkpt>
      <trkpt lat="44.23389" lon="0.67055">
        <ele>100.114502</ele>
        <time>2014-12-11T13:25:38Z</time>
      </trkpt>
      <trkpt lat="44.23411" lon="0.6704">
        <ele>99.1530762</ele>
        <time>2014-12-11T13:26:03Z</time>
      </trkpt>
      <trkpt lat="44.23424" lon="0.67023">
        <ele>99.1530762</ele>
        <time>2014-12-11T13:26:20Z</time>
      </trkpt>
      <trkpt lat="44.23443" lon="0.66999">
        <ele>97.2304688</ele>
        <time>2014-12-11T13:26:45Z</time>
      </trkpt>
      <trkpt lat="44.23463" lon="0.6697">
        <ele>95.3077393</ele>
        <time>2014-12-11T13:27:11Z</time>
      </trkpt>
      <trkpt lat="44.23474" lon="0.66943">
        <ele>94.8271484</ele>
        <time>2014-12-11T13:27:33Z</time>
      </trkpt>
      <trkpt lat="44.23477" lon="0.66938">
        <ele>94.8271484</ele>
        <time>2014-12-11T13:27:37Z</time>
      </trkpt>
      <trkpt lat="44.23494" lon="0.66907">
        <ele>95.7884521</ele>
        <time>2014-12-11T13:28:04Z</time>
      </trkpt>
      <trkpt lat="44.23509" lon="0.6688">
        <ele>95.3077393</ele>
        <time>2014-12-11T13:28:25Z</time>
      </trkpt>
      <trkpt lat="44.23523" lon="0.66851">
        <ele>95.3077393</ele>
        <time>2014-12-11T13:28:50Z</time>
      </trkpt>
      <trkpt lat="44.23541" lon="0.66805">
        <ele>96.7498779</ele>
        <time>2014-12-11T13:29:24Z</time>
      </trkpt>
      <trkpt lat="44.23557" lon="0.66772">
        <ele>97.2304688</ele>
        <time>2014-12-11T13:29:52Z</time>
      </trkpt>
      <trkpt lat="44.23575" lon="0.66737">
        <ele>99.1530762</ele>
        <time>2014-12-11T13:30:25Z</time>
      </trkpt>
      <trkpt lat="44.2359" lon="0.66701">
        <ele>100.5950928</ele>
        <time>2014-12-11T13:30:55Z</time>
      </trkpt>
      <trkpt lat="44.23597" lon="0.66669">
        <ele>103.9597168</ele>
        <time>2014-12-11T13:31:20Z</time>
      </trkpt>
      <trkpt lat="44.23599" lon="0.66661">
        <ele>104.4404297</ele>
        <time>2014-12-11T13:31:27Z</time>
      </trkpt>
      <trkpt lat="44.23599" lon="0.66656">
        <ele>104.9210205</ele>
        <time>2014-12-11T13:31:30Z</time>
      </trkpt>
      <trkpt lat="44.23601" lon="0.66643">
        <ele>105.8824463</ele>
        <time>2014-12-11T13:31:45Z</time>
      </trkpt>
      <trkpt lat="44.23603" lon="0.66626">
        <ele>111.1695557</ele>
        <time>2014-12-11T13:32:01Z</time>
      </trkpt>
      <trkpt lat="44.23604" lon="0.66604">
        <ele>111.6502686</ele>
        <time>2014-12-11T13:32:23Z</time>
      </trkpt>
      <trkpt lat="44.23614" lon="0.6658">
        <ele>113.0922852</ele>
        <time>2014-12-11T13:32:51Z</time>
      </trkpt>
      <trkpt lat="44.23619" lon="0.6656">
        <ele>114.0535889</ele>
        <time>2014-12-11T13:33:09Z</time>
      </trkpt>
      <trkpt lat="44.2362" lon="0.66537">
        <ele>114.5341797</ele>
        <time>2014-12-11T13:33:27Z</time>
      </trkpt>
      <trkpt lat="44.2361" lon="0.66519">
        <ele>115.0148926</ele>
        <time>2014-12-11T13:33:44Z</time>
      </trkpt>
      <trkpt lat="44.23603" lon="0.66506">
        <ele>115.0148926</ele>
        <time>2014-12-11T13:33:57Z</time>
      </trkpt>
      <trkpt lat="44.23595" lon="0.66487">
        <ele>117.4182129</ele>
        <time>2014-12-11T13:34:16Z</time>
      </trkpt>
      <trkpt lat="44.23593" lon="0.66468">
        <ele>122.2247314</ele>
        <time>2014-12-11T13:34:36Z</time>
      </trkpt>
      <trkpt lat="44.23588" lon="0.66457">
        <ele>121.7441406</ele>
        <time>2014-12-11T13:34:58Z</time>
      </trkpt>
      <trkpt lat="44.23585" lon="0.66442">
        <ele>121.7441406</ele>
        <time>2014-12-11T13:35:15Z</time>
      </trkpt>
      <trkpt lat="44.23582" lon="0.66431">
        <ele>125.1087646</ele>
        <time>2014-12-11T13:35:35Z</time>
      </trkpt>
      <trkpt lat="44.23582" lon="0.66421">
        <ele>126.0699463</ele>
        <time>2014-12-11T13:35:55Z</time>
      </trkpt>
      <trkpt lat="44.23583" lon="0.66413">
        <ele>128.4733887</ele>
        <time>2014-12-11T13:36:10Z</time>
      </trkpt>
      <trkpt lat="44.23581" lon="0.66407">
        <ele>129.4346924</ele>
        <time>2014-12-11T13:36:31Z</time>
      </trkpt>
      <trkpt lat="44.23582" lon="0.66398">
        <ele>132.3186035</ele>
        <time>2014-12-11T13:36:55Z</time>
      </trkpt>
      <trkpt lat="44.23581" lon="0.66389">
        <ele>133.760498</ele>
        <time>2014-12-11T13:37:10Z</time>
      </trkpt>
      <trkpt lat="44.23581" lon="0.6638">
        <ele>135.6831055</ele>
        <time>2014-12-11T13:37:23Z</time>
      </trkpt>
      <trkpt lat="44.23582" lon="0.66367">
        <ele>136.1639404</ele>
        <time>2014-12-11T13:37:36Z</time>
      </trkpt>
      <trkpt lat="44.2358" lon="0.66351">
        <ele>137.605835</ele>
        <time>2014-12-11T13:37:52Z</time>
      </trkpt>
      <trkpt lat="44.23574" lon="0.66342">
        <ele>139.5284424</ele>
        <time>2014-12-11T13:38:19Z</time>
      </trkpt>
      <trkpt lat="44.23568" lon="0.66335">
        <ele>140.0091553</ele>
        <time>2014-12-11T13:38:44Z</time>
      </trkpt>
      <trkpt lat="44.23565" lon="0.66331">
        <ele>138.5672607</ele>
        <time>2014-12-11T13:40:13Z</time>
      </trkpt>
      <trkpt lat="44.23557" lon="0.66321">
        <ele>137.605835</ele>
        <time>2014-12-11T13:40:57Z</time>
      </trkpt>
      <trkpt lat="44.23538" lon="0.66303">
        <ele>139.0478516</ele>
        <time>2014-12-11T13:41:20Z</time>
      </trkpt>
      <trkpt lat="44.23522" lon="0.66287">
        <ele>139.5284424</ele>
        <time>2014-12-11T13:41:42Z</time>
      </trkpt>
      <trkpt lat="44.23504" lon="0.66273">
        <ele>139.0478516</ele>
        <time>2014-12-11T13:42:04Z</time>
      </trkpt>
      <trkpt lat="44.23495" lon="0.66262">
        <ele>140.0091553</ele>
        <time>2014-12-11T13:42:19Z</time>
      </trkpt>
      <trkpt lat="44.23494" lon="0.66249">
        <ele>141.9317627</ele>
        <time>2014-12-11T13:42:29Z</time>
      </trkpt>
      <trkpt lat="44.23509" lon="0.66232">
        <ele>143.8543701</ele>
        <time>2014-12-11T13:42:46Z</time>
      </trkpt>
      <trkpt lat="44.23532" lon="0.66203">
        <ele>143.3736572</ele>
        <time>2014-12-11T13:43:16Z</time>
      </trkpt>
      <trkpt lat="44.23556" lon="0.66168">
        <ele>144.3352051</ele>
        <time>2014-12-11T13:43:47Z</time>
      </trkpt>
      <trkpt lat="44.23573" lon="0.66143">
        <ele>143.8543701</ele>
        <time>2014-12-11T13:44:10Z</time>
      </trkpt>
      <trkpt lat="44.23596" lon="0.66111">
        <ele>143.8543701</ele>
        <time>2014-12-11T13:44:37Z</time>
      </trkpt>
      <trkpt lat="44.23622" lon="0.66078">
        <ele>145.7770996</ele>
        <time>2014-12-11T13:45:07Z</time>
      </trkpt>
      <trkpt lat="44.23644" lon="0.66056">
        <ele>148.6610107</ele>
        <time>2014-12-11T13:45:30Z</time>
      </trkpt>
      <trkpt lat="44.2366" lon="0.66037">
        <ele>149.1416016</ele>
        <time>2014-12-11T13:45:50Z</time>
      </trkpt>
      <trkpt lat="44.23674" lon="0.66012">
        <ele>150.1030273</ele>
        <time>2014-12-11T13:46:09Z</time>
      </trkpt>
      <trkpt lat="44.23674" lon="0.66001">
        <ele>149.1416016</ele>
        <time>2014-12-11T13:46:14Z</time>
      </trkpt>
      <trkpt lat="44.23659" lon="0.65963">
        <ele>148.6610107</ele>
        <time>2014-12-11T13:46:36Z</time>
      </trkpt>
      <trkpt lat="44.23656" lon="0.65961">
        <ele>148.6610107</ele>
        <time>2014-12-11T13:46:39Z</time>
      </trkpt>
      <trkpt lat="44.23649" lon="0.65948">
        <ele>147.2189941</ele>
        <time>2014-12-11T13:46:50Z</time>
      </trkpt>
      <trkpt lat="44.23632" lon="0.65922">
        <ele>147.2189941</ele>
        <time>2014-12-11T13:47:16Z</time>
      </trkpt>
      <trkpt lat="44.23619" lon="0.65894">
        <ele>145.2963867</ele>
        <time>2014-12-11T13:47:42Z</time>
      </trkpt>
      <trkpt lat="44.23611" lon="0.65859">
        <ele>144.3352051</ele>
        <time>2014-12-11T13:48:09Z</time>
      </trkpt>
      <trkpt lat="44.23607" lon="0.65847">
        <ele>144.8157959</ele>
        <time>2014-12-11T13:48:31Z</time>
      </trkpt>
      <trkpt lat="44.23606" lon="0.6584">
        <ele>145.2963867</ele>
        <time>2014-12-11T13:48:53Z</time>
      </trkpt>
      <trkpt lat="44.23595" lon="0.65823">
        <ele>142.8930664</ele>
        <time>2014-12-11T13:49:12Z</time>
      </trkpt>
      <trkpt lat="44.23594" lon="0.65821">
        <ele>141.9317627</ele>
        <time>2014-12-11T13:49:14Z</time>
      </trkpt>
      <trkpt lat="44.23578" lon="0.65791">
        <ele>143.8543701</ele>
        <time>2014-12-11T13:49:39Z</time>
      </trkpt>
      <trkpt lat="44.23575" lon="0.65789">
        <ele>144.3352051</ele>
        <time>2014-12-11T13:49:42Z</time>
      </trkpt>
      <trkpt lat="44.23574" lon="0.65788">
        <ele>144.3352051</ele>
        <time>2014-12-11T13:49:44Z</time>
      </trkpt>
      <trkpt lat="44.2355" lon="0.6578">
        <ele>144.8157959</ele>
        <time>2014-12-11T13:50:05Z</time>
      </trkpt>
      <trkpt lat="44.23525" lon="0.65772">
        <ele>145.2963867</ele>
        <time>2014-12-11T13:50:28Z</time>
      </trkpt>
      <trkpt lat="44.23501" lon="0.65765">
        <ele>144.8157959</ele>
        <time>2014-12-11T13:50:51Z</time>
      </trkpt>
      <trkpt lat="44.23486" lon="0.65759">
        <ele>145.7770996</ele>
        <time>2014-12-11T13:51:09Z</time>
      </trkpt>
      <trkpt lat="44.23478" lon="0.65752">
        <ele>144.8157959</ele>
        <time>2014-12-11T13:51:20Z</time>
      </trkpt>
      <trkpt lat="44.23464" lon="0.65726">
        <ele>143.3736572</ele>
        <time>2014-12-11T13:51:42Z</time>
      </trkpt>
      <trkpt lat="44.23456" lon="0.65686">
        <ele>141.4510498</ele>
        <time>2014-12-11T13:52:08Z</time>
      </trkpt>
      <trkpt lat="44.23462" lon="0.65635">
        <ele>141.4510498</ele>
        <time>2014-12-11T13:52:41Z</time>
      </trkpt>
      <trkpt lat="44.23465" lon="0.65617">
        <ele>141.9317627</ele>
        <time>2014-12-11T13:52:52Z</time>
      </trkpt>
      <trkpt lat="44.23472" lon="0.65575">
        <ele>140.4898682</ele>
        <time>2014-12-11T13:53:18Z</time>
      </trkpt>
      <trkpt lat="44.2348" lon="0.65533">
        <ele>139.5284424</ele>
        <time>2014-12-11T13:53:46Z</time>
      </trkpt>
      <trkpt lat="44.23485" lon="0.655">
        <ele>139.0478516</ele>
        <time>2014-12-11T13:54:07Z</time>
      </trkpt>
      <trkpt lat="44.23493" lon="0.65453">
        <ele>137.605835</ele>
        <time>2014-12-11T13:54:37Z</time>
      </trkpt>
      <trkpt lat="44.23495" lon="0.65425">
        <ele>136.1639404</ele>
        <time>2014-12-11T13:54:55Z</time>
      </trkpt>
      <trkpt lat="44.23503" lon="0.65393">
        <ele>135.2025146</ele>
        <time>2014-12-11T13:55:21Z</time>
      </trkpt>
      <trkpt lat="44.23515" lon="0.65366">
        <ele>134.2412109</ele>
        <time>2014-12-11T13:55:46Z</time>
      </trkpt>
      <trkpt lat="44.23521" lon="0.65356">
        <ele>134.7219238</ele>
        <time>2014-12-11T13:55:55Z</time>
      </trkpt>
      <trkpt lat="44.23534" lon="0.65335">
        <ele>135.2025146</ele>
        <time>2014-12-11T13:56:14Z</time>
      </trkpt>
      <trkpt lat="44.23536" lon="0.65333">
        <ele>135.2025146</ele>
        <time>2014-12-11T13:56:17Z</time>
      </trkpt>
      <trkpt lat="44.23562" lon="0.65307">
        <ele>135.6831055</ele>
        <time>2014-12-11T13:56:46Z</time>
      </trkpt>
      <trkpt lat="44.2357" lon="0.65285">
        <ele>136.6446533</ele>
        <time>2014-12-11T13:57:08Z</time>
      </trkpt>
      <trkpt lat="44.23566" lon="0.65253">
        <ele>138.5672607</ele>
        <time>2014-12-11T13:57:37Z</time>
      </trkpt>
      <trkpt lat="44.23562" lon="0.65229">
        <ele>140.4898682</ele>
        <time>2014-12-11T13:58:04Z</time>
      </trkpt>
      <trkpt lat="44.23557" lon="0.65222">
        <ele>140.0091553</ele>
        <time>2014-12-11T13:58:11Z</time>
      </trkpt>
      <trkpt lat="44.23556" lon="0.65199">
        <ele>141.4510498</ele>
        <time>2014-12-11T13:58:33Z</time>
      </trkpt>
      <trkpt lat="44.23568" lon="0.65177">
        <ele>143.3736572</ele>
        <time>2014-12-11T13:58:59Z</time>
      </trkpt>
      <trkpt lat="44.23575" lon="0.65158">
        <ele>144.8157959</ele>
        <time>2014-12-11T13:59:20Z</time>
      </trkpt>
      <trkpt lat="44.23584" lon="0.65132">
        <ele>144.8157959</ele>
        <time>2014-12-11T13:59:48Z</time>
      </trkpt>
      <trkpt lat="44.23589" lon="0.65112">
        <ele>143.8543701</ele>
        <time>2014-12-11T14:00:07Z</time>
      </trkpt>
      <trkpt lat="44.236" lon="0.65104">
        <ele>146.2578125</ele>
        <time>2014-12-11T14:00:25Z</time>
      </trkpt>
      <trkpt lat="44.23605" lon="0.65095">
        <ele>146.7384033</ele>
        <time>2014-12-11T14:00:40Z</time>
      </trkpt>
      <trkpt lat="44.23605" lon="0.65095">
        <ele>146.7384033</ele>
        <time>2014-12-11T14:01:32Z</time>
      </trkpt>
      <trkpt lat="44.23602" lon="0.65077">
        <ele>144.8157959</ele>
        <time>2014-12-11T14:02:04Z</time>
      </trkpt>
      <trkpt lat="44.236" lon="0.65044">
        <ele>140.970459</ele>
        <time>2014-12-11T14:02:29Z</time>
      </trkpt>
      <trkpt lat="44.23598" lon="0.65021">
        <ele>140.4898682</ele>
        <time>2014-12-11T14:02:47Z</time>
      </trkpt>
      <trkpt lat="44.23598" lon="0.64995">
        <ele>140.970459</ele>
        <time>2014-12-11T14:03:03Z</time>
      </trkpt>
      <trkpt lat="44.236" lon="0.64984">
        <ele>139.5284424</ele>
        <time>2014-12-11T14:03:11Z</time>
      </trkpt>
      <trkpt lat="44.23596" lon="0.64959">
        <ele>140.4898682</ele>
        <time>2014-12-11T14:03:28Z</time>
      </trkpt>
      <trkpt lat="44.23584" lon="0.64942">
        <ele>139.5284424</ele>
        <time>2014-12-11T14:03:42Z</time>
      </trkpt>
      <trkpt lat="44.2358" lon="0.64936">
        <ele>139.5284424</ele>
        <time>2014-12-11T14:03:46Z</time>
      </trkpt>
      <trkpt lat="44.23568" lon="0.64933">
        <ele>139.0478516</ele>
        <time>2014-12-11T14:03:57Z</time>
      </trkpt>
      <trkpt lat="44.2355" lon="0.64921">
        <ele>136.6446533</ele>
        <time>2014-12-11T14:04:18Z</time>
      </trkpt>
      <trkpt lat="44.23531" lon="0.64903">
        <ele>135.6831055</ele>
        <time>2014-12-11T14:04:38Z</time>
      </trkpt>
      <trkpt lat="44.23505" lon="0.6488">
        <ele>134.2412109</ele>
        <time>2014-12-11T14:05:02Z</time>
      </trkpt>
      <trkpt lat="44.23484" lon="0.64864">
        <ele>133.2799072</ele>
        <time>2014-12-11T14:05:22Z</time>
      </trkpt>
      <trkpt lat="44.23458" lon="0.64843">
        <ele>133.2799072</ele>
        <time>2014-12-11T14:05:48Z</time>
      </trkpt>
      <trkpt lat="44.23436" lon="0.64824">
        <ele>137.605835</ele>
        <time>2014-12-11T14:06:11Z</time>
      </trkpt>
      <trkpt lat="44.23418" lon="0.64815">
        <ele>138.5672607</ele>
        <time>2014-12-11T14:06:31Z</time>
      </trkpt>
      <trkpt lat="44.23396" lon="0.64802">
        <ele>138.5672607</ele>
        <time>2014-12-11T14:06:53Z</time>
      </trkpt>
      <trkpt lat="44.23372" lon="0.64777">
        <ele>140.4898682</ele>
        <time>2014-12-11T14:07:20Z</time>
      </trkpt>
      <trkpt lat="44.23347" lon="0.64758">
        <ele>142.8930664</ele>
        <time>2014-12-11T14:07:44Z</time>
      </trkpt>
      <trkpt lat="44.23336" lon="0.64745">
        <ele>142.4124756</ele>
        <time>2014-12-11T14:07:59Z</time>
      </trkpt>
      <trkpt lat="44.23317" lon="0.64732">
        <ele>141.9317627</ele>
        <time>2014-12-11T14:08:19Z</time>
      </trkpt>
      <trkpt lat="44.23299" lon="0.64725">
        <ele>140.970459</ele>
        <time>2014-12-11T14:08:37Z</time>
      </trkpt>
      <trkpt lat="44.23286" lon="0.64719">
        <ele>141.9317627</ele>
        <time>2014-12-11T14:08:48Z</time>
      </trkpt>
      <trkpt lat="44.23268" lon="0.64711">
        <ele>144.3352051</ele>
        <time>2014-12-11T14:09:05Z</time>
      </trkpt>
      <trkpt lat="44.23265" lon="0.64709">
        <ele>144.8157959</ele>
        <time>2014-12-11T14:09:08Z</time>
      </trkpt>
      <trkpt lat="44.23246" lon="0.64699">
        <ele>141.9317627</ele>
        <time>2014-12-11T14:09:25Z</time>
      </trkpt>
      <trkpt lat="44.23232" lon="0.64694">
        <ele>143.8543701</ele>
        <time>2014-12-11T14:09:37Z</time>
      </trkpt>
      <trkpt lat="44.23223" lon="0.64691">
        <ele>144.3352051</ele>
        <time>2014-12-11T14:09:44Z</time>
      </trkpt>
      <trkpt lat="44.23209" lon="0.64692">
        <ele>143.3736572</ele>
        <time>2014-12-11T14:10:02Z</time>
      </trkpt>
      <trkpt lat="44.2319" lon="0.64694">
        <ele>144.8157959</ele>
        <time>2014-12-11T14:10:21Z</time>
      </trkpt>
      <trkpt lat="44.23183" lon="0.64688">
        <ele>142.8930664</ele>
        <time>2014-12-11T14:10:26Z</time>
      </trkpt>
      <trkpt lat="44.23173" lon="0.64689">
        <ele>141.4510498</ele>
        <time>2014-12-11T14:10:36Z</time>
      </trkpt>
      <trkpt lat="44.23158" lon="0.64703">
        <ele>139.0478516</ele>
        <time>2014-12-11T14:10:53Z</time>
      </trkpt>
      <trkpt lat="44.23148" lon="0.64719">
        <ele>136.1639404</ele>
        <time>2014-12-11T14:11:10Z</time>
      </trkpt>
      <trkpt lat="44.23138" lon="0.64732">
        <ele>134.2412109</ele>
        <time>2014-12-11T14:11:27Z</time>
      </trkpt>
      <trkpt lat="44.23132" lon="0.64739">
        <ele>132.7993164</ele>
        <time>2014-12-11T14:11:35Z</time>
      </trkpt>
      <trkpt lat="44.23121" lon="0.64747">
        <ele>127.5119629</ele>
        <time>2014-12-11T14:11:50Z</time>
      </trkpt>
      <trkpt lat="44.23102" lon="0.64763">
        <ele>122.2247314</ele>
        <time>2014-12-11T14:12:12Z</time>
      </trkpt>
      <trkpt lat="44.23092" lon="0.64793">
        <ele>114.5341797</ele>
        <time>2014-12-11T14:12:39Z</time>
      </trkpt>
      <trkpt lat="44.23085" lon="0.64822">
        <ele>112.6115723</ele>
        <time>2014-12-11T14:13:03Z</time>
      </trkpt>
      <trkpt lat="44.23069" lon="0.6484">
        <ele>108.2856445</ele>
        <time>2014-12-11T14:13:27Z</time>
      </trkpt>
      <trkpt lat="44.23047" lon="0.64849">
        <ele>102.998291</ele>
        <time>2014-12-11T14:13:56Z</time>
      </trkpt>
      <trkpt lat="44.23022" lon="0.64857">
        <ele>96.2692871</ele>
        <time>2014-12-11T14:14:27Z</time>
      </trkpt>
      <trkpt lat="44.23011" lon="0.6485">
        <ele>91.9432373</ele>
        <time>2014-12-11T14:14:42Z</time>
      </trkpt>
      <trkpt lat="44.22994" lon="0.64822">
        <ele>92.904541</ele>
        <time>2014-12-11T14:15:06Z</time>
      </trkpt>
      <trkpt lat="44.22969" lon="0.64819">
        <ele>90.5013428</ele>
        <time>2014-12-11T14:15:30Z</time>
      </trkpt>
      <trkpt lat="44.22958" lon="0.6483">
        <ele>87.6171875</ele>
        <time>2014-12-11T14:15:43Z</time>
      </trkpt>
      <trkpt lat="44.22941" lon="0.64855">
        <ele>89.539917</ele>
        <time>2014-12-11T14:16:04Z</time>
      </trkpt>
      <trkpt lat="44.22921" lon="0.6488">
        <ele>86.6560059</ele>
        <time>2014-12-11T14:16:27Z</time>
      </trkpt>
      <trkpt lat="44.22903" lon="0.64907">
        <ele>81.8493652</ele>
        <time>2014-12-11T14:16:52Z</time>
      </trkpt>
      <trkpt lat="44.22888" lon="0.64941">
        <ele>76.0814209</ele>
        <time>2014-12-11T14:17:19Z</time>
      </trkpt>
      <trkpt lat="44.22884" lon="0.64955">
        <ele>75.6008301</ele>
        <time>2014-12-11T14:17:28Z</time>
      </trkpt>
      <trkpt lat="44.22882" lon="0.64976">
        <ele>77.0428467</ele>
        <time>2014-12-11T14:17:42Z</time>
      </trkpt>
      <trkpt lat="44.22868" lon="0.65001">
        <ele>72.2362061</ele>
        <time>2014-12-11T14:18:00Z</time>
      </trkpt>
      <trkpt lat="44.22863" lon="0.65035">
        <ele>72.7169189</ele>
        <time>2014-12-11T14:18:22Z</time>
      </trkpt>
      <trkpt lat="44.22862" lon="0.65072">
        <ele>73.1976318</ele>
        <time>2014-12-11T14:18:46Z</time>
      </trkpt>
      <trkpt lat="44.22857" lon="0.65084">
        <ele>74.1588135</ele>
        <time>2014-12-11T14:19:03Z</time>
      </trkpt>
      <trkpt lat="44.22851" lon="0.65087">
        <ele>76.0814209</ele>
        <time>2014-12-11T14:19:25Z</time>
      </trkpt>
      <trkpt lat="44.22849" lon="0.6509">
        <ele>75.1202393</ele>
        <time>2014-12-11T14:20:19Z</time>
      </trkpt>
      <trkpt lat="44.22836" lon="0.65096">
        <ele>77.0428467</ele>
        <time>2014-12-11T14:20:34Z</time>
      </trkpt>
      <trkpt lat="44.22822" lon="0.65103">
        <ele>79.9266357</ele>
        <time>2014-12-11T14:20:51Z</time>
      </trkpt>
      <trkpt lat="44.22819" lon="0.65103">
        <ele>79.9266357</ele>
        <time>2014-12-11T14:20:53Z</time>
      </trkpt>
      <trkpt lat="44.2281" lon="0.65105">
        <ele>79.4460449</ele>
        <time>2014-12-11T14:21:04Z</time>
      </trkpt>
      <trkpt lat="44.22794" lon="0.65111">
        <ele>74.1588135</ele>
        <time>2014-12-11T14:21:20Z</time>
      </trkpt>
      <trkpt lat="44.22792" lon="0.65111">
        <ele>73.6782227</ele>
        <time>2014-12-11T14:21:22Z</time>
      </trkpt>
      <trkpt lat="44.22786" lon="0.65111">
        <ele>71.7554932</ele>
        <time>2014-12-11T14:21:27Z</time>
      </trkpt>
      <trkpt lat="44.22777" lon="0.65114">
        <ele>71.2749023</ele>
        <time>2014-12-11T14:21:35Z</time>
      </trkpt>
      <trkpt lat="44.22762" lon="0.65115">
        <ele>70.3134766</ele>
        <time>2014-12-11T14:21:47Z</time>
      </trkpt>
      <trkpt lat="44.22752" lon="0.65118">
        <ele>68.871582</ele>
        <time>2014-12-11T14:21:56Z</time>
      </trkpt>
      <trkpt lat="44.22741" lon="0.65122">
        <ele>68.871582</ele>
        <time>2014-12-11T14:22:05Z</time>
      </trkpt>
      <trkpt lat="44.22732" lon="0.65127">
        <ele>67.9102783</ele>
        <time>2014-12-11T14:22:13Z</time>
      </trkpt>
      <trkpt lat="44.2273" lon="0.65129">
        <ele>67.9102783</ele>
        <time>2014-12-11T14:22:15Z</time>
      </trkpt>
      <trkpt lat="44.22728" lon="0.65131">
        <ele>66.4682617</ele>
        <time>2014-12-11T14:22:18Z</time>
      </trkpt>
      <trkpt lat="44.22707" lon="0.65144">
        <ele>66.9489746</ele>
        <time>2014-12-11T14:22:38Z</time>
      </trkpt>
      <trkpt lat="44.22691" lon="0.65149">
        <ele>66.9489746</ele>
        <time>2014-12-11T14:22:52Z</time>
      </trkpt>
      <trkpt lat="44.22681" lon="0.6515">
        <ele>66.4682617</ele>
        <time>2014-12-11T14:23:01Z</time>
      </trkpt>
      <trkpt lat="44.22662" lon="0.65153">
        <ele>65.5070801</ele>
        <time>2014-12-11T14:23:17Z</time>
      </trkpt>
      <trkpt lat="44.22644" lon="0.65161">
        <ele>64.5456543</ele>
        <time>2014-12-11T14:23:34Z</time>
      </trkpt>
      <trkpt lat="44.22638" lon="0.65161">
        <ele>63.5843506</ele>
        <time>2014-12-11T14:23:39Z</time>
      </trkpt>
      <trkpt lat="44.22617" lon="0.65166">
        <ele>63.5843506</ele>
        <time>2014-12-11T14:23:56Z</time>
      </trkpt>
      <trkpt lat="44.2261" lon="0.65166">
        <ele>63.5843506</ele>
        <time>2014-12-11T14:24:02Z</time>
      </trkpt>
      <trkpt lat="44.22607" lon="0.65168">
        <ele>63.1036377</ele>
        <time>2014-12-11T14:24:06Z</time>
      </trkpt>
      <trkpt lat="44.22594" lon="0.65169">
        <ele>61.1810303</ele>
        <time>2014-12-11T14:24:17Z</time>
      </trkpt>
      <trkpt lat="44.22588" lon="0.65169">
        <ele>59.7391357</ele>
        <time>2014-12-11T14:24:22Z</time>
      </trkpt>
      <trkpt lat="44.22581" lon="0.6517">
        <ele>59.2584229</ele>
        <time>2014-12-11T14:24:27Z</time>
      </trkpt>
      <trkpt lat="44.22575" lon="0.65172">
        <ele>59.2584229</ele>
        <time>2014-12-11T14:24:32Z</time>
      </trkpt>
      <trkpt lat="44.22572" lon="0.65174">
        <ele>58.77771</ele>
        <time>2014-12-11T14:24:35Z</time>
      </trkpt>
      <trkpt lat="44.22536" lon="0.65193">
        <ele>61.1810303</ele>
        <time>2014-12-11T14:25:06Z</time>
      </trkpt>
      <trkpt lat="44.22505" lon="0.6521">
        <ele>63.1036377</ele>
        <time>2014-12-11T14:25:33Z</time>
      </trkpt>
      <trkpt lat="44.22485" lon="0.65219">
        <ele>63.1036377</ele>
        <time>2014-12-11T14:25:49Z</time>
      </trkpt>
      <trkpt lat="44.22463" lon="0.65233">
        <ele>64.5456543</ele>
        <time>2014-12-11T14:26:08Z</time>
      </trkpt>
      <trkpt lat="44.22452" lon="0.65239">
        <ele>65.0263672</ele>
        <time>2014-12-11T14:26:18Z</time>
      </trkpt>
      <trkpt lat="44.22449" lon="0.65243">
        <ele>66.4682617</ele>
        <time>2014-12-11T14:26:21Z</time>
      </trkpt>
      <trkpt lat="44.22446" lon="0.65247">
        <ele>66.9489746</ele>
        <time>2014-12-11T14:26:25Z</time>
      </trkpt>
      <trkpt lat="44.22428" lon="0.65257">
        <ele>65.0263672</ele>
        <time>2014-12-11T14:26:41Z</time>
      </trkpt>
      <trkpt lat="44.22403" lon="0.65285">
        <ele>66.9489746</ele>
        <time>2014-12-11T14:27:09Z</time>
      </trkpt>
      <trkpt lat="44.22389" lon="0.65303">
        <ele>67.4296875</ele>
        <time>2014-12-11T14:27:25Z</time>
      </trkpt>
      <trkpt lat="44.22377" lon="0.65321">
        <ele>67.4296875</ele>
        <time>2014-12-11T14:27:40Z</time>
      </trkpt>
      <trkpt lat="44.22363" lon="0.65333">
        <ele>65.9876709</ele>
        <time>2014-12-11T14:27:56Z</time>
      </trkpt>
      <trkpt lat="44.2235" lon="0.65345">
        <ele>61.6617432</ele>
        <time>2014-12-11T14:28:14Z</time>
      </trkpt>
      <trkpt lat="44.22328" lon="0.65348">
        <ele>59.2584229</ele>
        <time>2014-12-11T14:28:30Z</time>
      </trkpt>
      <trkpt lat="44.2231" lon="0.65354">
        <ele>57.8165283</ele>
        <time>2014-12-11T14:28:46Z</time>
      </trkpt>
      <trkpt lat="44.22293" lon="0.65367">
        <ele>55.4130859</ele>
        <time>2014-12-11T14:29:06Z</time>
      </trkpt>
      <trkpt lat="44.2227" lon="0.6539">
        <ele>53.0097656</ele>
        <time>2014-12-11T14:29:31Z</time>
      </trkpt>
      <trkpt lat="44.22252" lon="0.65408">
        <ele>50.1259766</ele>
        <time>2014-12-11T14:29:50Z</time>
      </trkpt>
      <trkpt lat="44.22232" lon="0.65426">
        <ele>52.048584</ele>
        <time>2014-12-11T14:30:15Z</time>
      </trkpt>
      <trkpt lat="44.22216" lon="0.65442">
        <ele>51.5678711</ele>
        <time>2014-12-11T14:30:34Z</time>
      </trkpt>
      <trkpt lat="44.22198" lon="0.65462">
        <ele>49.1645508</ele>
        <time>2014-12-11T14:30:56Z</time>
      </trkpt>
      <trkpt lat="44.22177" lon="0.65483">
        <ele>48.2033691</ele>
        <time>2014-12-11T14:31:19Z</time>
      </trkpt>
      <trkpt lat="44.22156" lon="0.65506">
        <ele>45.3192139</ele>
        <time>2014-12-11T14:31:42Z</time>
      </trkpt>
      <trkpt lat="44.22135" lon="0.65528">
        <ele>46.2806396</ele>
        <time>2014-12-11T14:32:04Z</time>
      </trkpt>
      <trkpt lat="44.22115" lon="0.6555">
        <ele>45.7999268</ele>
        <time>2014-12-11T14:32:26Z</time>
      </trkpt>
      <trkpt lat="44.22099" lon="0.65568">
        <ele>47.2418213</ele>
        <time>2014-12-11T14:32:45Z</time>
      </trkpt>
      <trkpt lat="44.22081" lon="0.65588">
        <ele>42.9160156</ele>
        <time>2014-12-11T14:33:07Z</time>
      </trkpt>
      <trkpt lat="44.2208" lon="0.65589">
        <ele>42.9160156</ele>
        <time>2014-12-11T14:33:08Z</time>
      </trkpt>
      <trkpt lat="44.22058" lon="0.65604">
        <ele>46.7612305</ele>
        <time>2014-12-11T14:33:29Z</time>
      </trkpt>
      <trkpt lat="44.22055" lon="0.65607">
        <ele>47.7225342</ele>
        <time>2014-12-11T14:33:32Z</time>
      </trkpt>
      <trkpt lat="44.22037" lon="0.65622">
        <ele>49.1645508</ele>
        <time>2014-12-11T14:33:51Z</time>
      </trkpt>
      <trkpt lat="44.22026" lon="0.65633">
        <ele>53.9711914</ele>
        <time>2014-12-11T14:34:04Z</time>
      </trkpt>
      <trkpt lat="44.22016" lon="0.65656">
        <ele>54.932373</ele>
        <time>2014-12-11T14:34:23Z</time>
      </trkpt>
      <trkpt lat="44.22014" lon="0.6566">
        <ele>55.4130859</ele>
        <time>2014-12-11T14:34:27Z</time>
      </trkpt>
      <trkpt lat="44.22012" lon="0.65665">
        <ele>54.932373</ele>
        <time>2014-12-11T14:34:32Z</time>
      </trkpt>
      <trkpt lat="44.22007" lon="0.6568">
        <ele>58.2971191</ele>
        <time>2014-12-11T14:34:50Z</time>
      </trkpt>
      <trkpt lat="44.22012" lon="0.65698">
        <ele>58.77771</ele>
        <time>2014-12-11T14:35:04Z</time>
      </trkpt>
      <trkpt lat="44.22021" lon="0.65722">
        <ele>57.8165283</ele>
        <time>2014-12-11T14:35:22Z</time>
      </trkpt>
      <trkpt lat="44.22031" lon="0.65747">
        <ele>54.932373</ele>
        <time>2014-12-11T14:35:41Z</time>
      </trkpt>
      <trkpt lat="44.22038" lon="0.65772">
        <ele>55.4130859</ele>
        <time>2014-12-11T14:36:04Z</time>
      </trkpt>
      <trkpt lat="44.2204" lon="0.65778">
        <ele>55.4130859</ele>
        <time>2014-12-11T14:36:09Z</time>
      </trkpt>
      <trkpt lat="44.22054" lon="0.65809">
        <ele>51.0871582</ele>
        <time>2014-12-11T14:36:32Z</time>
      </trkpt>
      <trkpt lat="44.22066" lon="0.65836">
        <ele>46.2806396</ele>
        <time>2014-12-11T14:36:51Z</time>
      </trkpt>
      <trkpt lat="44.22067" lon="0.65837">
        <ele>45.7999268</ele>
        <time>2014-12-11T14:36:52Z</time>
      </trkpt>
      <trkpt lat="44.22073" lon="0.65856">
        <ele>46.7612305</ele>
        <time>2014-12-11T14:37:05Z</time>
      </trkpt>
      <trkpt lat="44.22075" lon="0.65863">
        <ele>45.7999268</ele>
        <time>2014-12-11T14:37:10Z</time>
      </trkpt>
      <trkpt lat="44.22078" lon="0.65869">
        <ele>45.3192139</ele>
        <time>2014-12-11T14:37:15Z</time>
      </trkpt>
      <trkpt lat="44.22085" lon="0.65892">
        <ele>44.838623</ele>
        <time>2014-12-11T14:37:32Z</time>
      </trkpt>
      <trkpt lat="44.22095" lon="0.65918">
        <ele>45.7999268</ele>
        <time>2014-12-11T14:37:54Z</time>
      </trkpt>
      <trkpt lat="44.22107" lon="0.65943">
        <ele>41.9547119</ele>
        <time>2014-12-11T14:38:13Z</time>
      </trkpt>
      <trkpt lat="44.22112" lon="0.65949">
        <ele>40.9934082</ele>
        <time>2014-12-11T14:38:19Z</time>
      </trkpt>
      <trkpt lat="44.22116" lon="0.6596">
        <ele>40.5128174</ele>
        <time>2014-12-11T14:38:28Z</time>
      </trkpt>
      <trkpt lat="44.22118" lon="0.6598">
        <ele>40.0321045</ele>
        <time>2014-12-11T14:38:45Z</time>
      </trkpt>
      <trkpt lat="44.2212" lon="0.65986">
        <ele>39.0706787</ele>
        <time>2014-12-11T14:38:50Z</time>
      </trkpt>
      <trkpt lat="44.22122" lon="0.6599">
        <ele>38.109375</ele>
        <time>2014-12-11T14:38:53Z</time>
      </trkpt>
      <trkpt lat="44.22123" lon="0.65994">
        <ele>37.6286621</ele>
        <time>2014-12-11T14:38:56Z</time>
      </trkpt>
      <trkpt lat="44.22133" lon="0.66023">
        <ele>38.5900879</ele>
        <time>2014-12-11T14:39:18Z</time>
      </trkpt>
      <trkpt lat="44.22142" lon="0.66039">
        <ele>35.7060547</ele>
        <time>2014-12-11T14:39:32Z</time>
      </trkpt>
      <trkpt lat="44.22151" lon="0.6606">
        <ele>35.7060547</ele>
        <time>2014-12-11T14:39:47Z</time>
      </trkpt>
      <trkpt lat="44.2216" lon="0.66078">
        <ele>33.7834473</ele>
        <time>2014-12-11T14:40:01Z</time>
      </trkpt>
      <trkpt lat="44.2216" lon="0.6608">
        <ele>34.744873</ele>
        <time>2014-12-11T14:40:03Z</time>
      </trkpt>
      <trkpt lat="44.22162" lon="0.66084">
        <ele>34.2641602</ele>
        <time>2014-12-11T14:40:06Z</time>
      </trkpt>
      <trkpt lat="44.22168" lon="0.66108">
        <ele>33.3028564</ele>
        <time>2014-12-11T14:40:22Z</time>
      </trkpt>
      <trkpt lat="44.22169" lon="0.66108">
        <ele>33.3028564</ele>
        <time>2014-12-11T14:40:23Z</time>
      </trkpt>
      <trkpt lat="44.22175" lon="0.66132">
        <ele>31.8607178</ele>
        <time>2014-12-11T14:40:38Z</time>
      </trkpt>
      <trkpt lat="44.22175" lon="0.66134">
        <ele>31.380127</ele>
        <time>2014-12-11T14:40:39Z</time>
      </trkpt>
      <trkpt lat="44.22181" lon="0.66144">
        <ele>29.4575195</ele>
        <time>2014-12-11T14:40:47Z</time>
      </trkpt>
      <trkpt lat="44.22188" lon="0.66163">
        <ele>29.9381104</ele>
        <time>2014-12-11T14:41:01Z</time>
      </trkpt>
      <trkpt lat="44.22195" lon="0.66191">
        <ele>30.8995361</ele>
        <time>2014-12-11T14:41:20Z</time>
      </trkpt>
      <trkpt lat="44.22201" lon="0.66213">
        <ele>36.6674805</ele>
        <time>2014-12-11T14:41:36Z</time>
      </trkpt>
      <trkpt lat="44.22206" lon="0.66234">
        <ele>43.3966064</ele>
        <time>2014-12-11T14:41:51Z</time>
      </trkpt>
      <trkpt lat="44.22211" lon="0.66254">
        <ele>45.7999268</ele>
        <time>2014-12-11T14:42:06Z</time>
      </trkpt>
      <trkpt lat="44.2222" lon="0.66274">
        <ele>45.7999268</ele>
        <time>2014-12-11T14:42:23Z</time>
      </trkpt>
      <trkpt lat="44.22226" lon="0.66292">
        <ele>49.6452637</ele>
        <time>2014-12-11T14:42:37Z</time>
      </trkpt>
      <trkpt lat="44.22237" lon="0.66308">
        <ele>47.2418213</ele>
        <time>2014-12-11T14:42:51Z</time>
      </trkpt>
      <trkpt lat="44.22242" lon="0.66318">
        <ele>43.3966064</ele>
        <time>2014-12-11T14:43:01Z</time>
      </trkpt>
      <trkpt lat="44.22245" lon="0.66325">
        <ele>42.9160156</ele>
        <time>2014-12-11T14:43:06Z</time>
      </trkpt>
      <trkpt lat="44.22252" lon="0.66346">
        <ele>42.4354248</ele>
        <time>2014-12-11T14:43:21Z</time>
      </trkpt>
      <trkpt lat="44.22253" lon="0.66348">
        <ele>42.4354248</ele>
        <time>2014-12-11T14:43:23Z</time>
      </trkpt>
      <trkpt lat="44.22258" lon="0.66366">
        <ele>40.5128174</ele>
        <time>2014-12-11T14:43:36Z</time>
      </trkpt>
      <trkpt lat="44.22263" lon="0.66387">
        <ele>41.473999</ele>
        <time>2014-12-11T14:43:51Z</time>
      </trkpt>
      <trkpt lat="44.2227" lon="0.66421">
        <ele>45.7999268</ele>
        <time>2014-12-11T14:44:12Z</time>
      </trkpt>
      <trkpt lat="44.22281" lon="0.66445">
        <ele>44.838623</ele>
        <time>2014-12-11T14:44:33Z</time>
      </trkpt>
      <trkpt lat="44.22287" lon="0.66459">
        <ele>46.7612305</ele>
        <time>2014-12-11T14:44:46Z</time>
      </trkpt>
      <trkpt lat="44.2229" lon="0.66473">
        <ele>49.1645508</ele>
        <time>2014-12-11T14:44:58Z</time>
      </trkpt>
      <trkpt lat="44.223" lon="0.66494">
        <ele>52.048584</ele>
        <time>2014-12-11T14:45:15Z</time>
      </trkpt>
      <trkpt lat="44.22308" lon="0.66513">
        <ele>50.6065674</ele>
        <time>2014-12-11T14:45:31Z</time>
      </trkpt>
      <trkpt lat="44.22319" lon="0.66532">
        <ele>46.7612305</ele>
        <time>2014-12-11T14:45:47Z</time>
      </trkpt>
      <trkpt lat="44.2232" lon="0.66533">
        <ele>46.2806396</ele>
        <time>2014-12-11T14:45:48Z</time>
      </trkpt>
      <trkpt lat="44.22334" lon="0.66559">
        <ele>41.9547119</ele>
        <time>2014-12-11T14:46:09Z</time>
      </trkpt>
      <trkpt lat="44.22347" lon="0.66588">
        <ele>43.3966064</ele>
        <time>2014-12-11T14:46:31Z</time>
      </trkpt>
      <trkpt lat="44.22364" lon="0.66627">
        <ele>47.7225342</ele>
        <time>2014-12-11T14:47:04Z</time>
      </trkpt>
      <trkpt lat="44.22378" lon="0.6665">
        <ele>50.6065674</ele>
        <time>2014-12-11T14:47:26Z</time>
      </trkpt>
      <trkpt lat="44.22386" lon="0.66663">
        <ele>50.6065674</ele>
        <time>2014-12-11T14:47:38Z</time>
      </trkpt>
      <trkpt lat="44.22401" lon="0.66692">
        <ele>51.5678711</ele>
        <time>2014-12-11T14:48:05Z</time>
      </trkpt>
      <trkpt lat="44.22413" lon="0.66716">
        <ele>53.0097656</ele>
        <time>2014-12-11T14:48:27Z</time>
      </trkpt>
      <trkpt lat="44.22421" lon="0.6673">
        <ele>50.1259766</ele>
        <time>2014-12-11T14:48:39Z</time>
      </trkpt>
      <trkpt lat="44.22426" lon="0.66738">
        <ele>47.7225342</ele>
        <time>2014-12-11T14:48:46Z</time>
      </trkpt>
      <trkpt lat="44.22443" lon="0.66764">
        <ele>45.7999268</ele>
        <time>2014-12-11T14:49:11Z</time>
      </trkpt>
      <trkpt lat="44.2246" lon="0.66792">
        <ele>49.1645508</ele>
        <time>2014-12-11T14:49:37Z</time>
      </trkpt>
      <trkpt lat="44.22477" lon="0.6682">
        <ele>51.0871582</ele>
        <time>2014-12-11T14:50:03Z</time>
      </trkpt>
      <trkpt lat="44.22495" lon="0.66843">
        <ele>52.5291748</ele>
        <time>2014-12-11T14:50:28Z</time>
      </trkpt>
      <trkpt lat="44.22511" lon="0.66865">
        <ele>52.5291748</ele>
        <time>2014-12-11T14:50:51Z</time>
      </trkpt>
      <trkpt lat="44.22531" lon="0.66893">
        <ele>51.0871582</ele>
        <time>2014-12-11T14:51:17Z</time>
      </trkpt>
      <trkpt lat="44.22535" lon="0.66898">
        <ele>50.1259766</ele>
        <time>2014-12-11T14:51:22Z</time>
      </trkpt>
      <trkpt lat="44.22539" lon="0.66906">
        <ele>50.1259766</ele>
        <time>2014-12-11T14:51:30Z</time>
      </trkpt>
      <trkpt lat="44.22553" lon="0.66922">
        <ele>47.7225342</ele>
        <time>2014-12-11T14:51:48Z</time>
      </trkpt>
      <trkpt lat="44.22568" lon="0.66942">
        <ele>49.6452637</ele>
        <time>2014-12-11T14:52:08Z</time>
      </trkpt>
      <trkpt lat="44.22584" lon="0.66961">
        <ele>52.5291748</ele>
        <time>2014-12-11T14:52:30Z</time>
      </trkpt>
      <trkpt lat="44.22598" lon="0.66974">
        <ele>52.5291748</ele>
        <time>2014-12-11T14:52:48Z</time>
      </trkpt>
      <trkpt lat="44.22609" lon="0.66984">
        <ele>51.0871582</ele>
        <time>2014-12-11T14:53:03Z</time>
      </trkpt>
      <trkpt lat="44.2261" lon="0.66986">
        <ele>51.0871582</ele>
        <time>2014-12-11T14:53:05Z</time>
      </trkpt>
      <trkpt lat="44.22612" lon="0.66988">
        <ele>52.048584</ele>
        <time>2014-12-11T14:53:24Z</time>
      </trkpt>
      <trkpt lat="44.22615" lon="0.67">
        <ele>52.048584</ele>
        <time>2014-12-11T14:53:38Z</time>
      </trkpt>
      <trkpt lat="44.22611" lon="0.6701">
        <ele>50.1259766</ele>
        <time>2014-12-11T14:53:44Z</time>
      </trkpt>
      <trkpt lat="44.22602" lon="0.67028">
        <ele>46.2806396</ele>
        <time>2014-12-11T14:54:01Z</time>
      </trkpt>
      <trkpt lat="44.22599" lon="0.67046">
        <ele>51.0871582</ele>
        <time>2014-12-11T14:54:17Z</time>
      </trkpt>
      <trkpt lat="44.22603" lon="0.67072">
        <ele>50.6065674</ele>
        <time>2014-12-11T14:54:34Z</time>
      </trkpt>
      <trkpt lat="44.22616" lon="0.67098">
        <ele>50.6065674</ele>
        <time>2014-12-11T14:54:53Z</time>
      </trkpt>
      <trkpt lat="44.2263" lon="0.67124">
        <ele>51.0871582</ele>
        <time>2014-12-11T14:55:19Z</time>
      </trkpt>
      <trkpt lat="44.2263" lon="0.67124">
        <ele>51.5678711</ele>
        <time>2014-12-11T14:55:31Z</time>
      </trkpt>
      <trkpt lat="44.22628" lon="0.67127">
        <ele>51.5678711</ele>
        <time>2014-12-11T14:55:34Z</time>
      </trkpt>
      <trkpt lat="44.22629" lon="0.67145">
        <ele>52.5291748</ele>
        <time>2014-12-11T14:55:46Z</time>
      </trkpt>
      <trkpt lat="44.22633" lon="0.67155">
        <ele>53.0097656</ele>
        <time>2014-12-11T14:55:54Z</time>
      </trkpt>
      <trkpt lat="44.2263" lon="0.67176">
        <ele>54.932373</ele>
        <time>2014-12-11T14:56:11Z</time>
      </trkpt>
      <trkpt lat="44.22619" lon="0.67201">
        <ele>56.3745117</ele>
        <time>2014-12-11T14:56:35Z</time>
      </trkpt>
      <trkpt lat="44.22609" lon="0.67218">
        <ele>55.4130859</ele>
        <time>2014-12-11T14:56:54Z</time>
      </trkpt>
      <trkpt lat="44.22595" lon="0.67235">
        <ele>54.4517822</ele>
        <time>2014-12-11T14:57:19Z</time>
      </trkpt>
      <trkpt lat="44.22579" lon="0.6725">
        <ele>55.4130859</ele>
        <time>2014-12-11T14:57:43Z</time>
      </trkpt>
      <trkpt lat="44.22564" lon="0.67258">
        <ele>54.4517822</ele>
        <time>2014-12-11T14:58:01Z</time>
      </trkpt>
      <trkpt lat="44.22561" lon="0.67261">
        <ele>55.4130859</ele>
        <time>2014-12-11T14:58:06Z</time>
      </trkpt>
      <trkpt lat="44.22551" lon="0.67262">
        <ele>56.8551025</ele>
        <time>2014-12-11T14:58:18Z</time>
      </trkpt>
      <trkpt lat="44.22538" lon="0.67262">
        <ele>59.2584229</ele>
        <time>2014-12-11T14:58:30Z</time>
      </trkpt>
      <trkpt lat="44.22517" lon="0.67261">
        <ele>58.2971191</ele>
        <time>2014-12-11T14:58:49Z</time>
      </trkpt>
      <trkpt lat="44.225" lon="0.6726">
        <ele>59.2584229</ele>
        <time>2014-12-11T14:59:06Z</time>
      </trkpt>
      <trkpt lat="44.22487" lon="0.67261">
        <ele>60.2197266</ele>
        <time>2014-12-11T14:59:20Z</time>
      </trkpt>
      <trkpt lat="44.22478" lon="0.67267">
        <ele>62.142334</ele>
        <time>2014-12-11T14:59:33Z</time>
      </trkpt>
      <trkpt lat="44.2247" lon="0.67271">
        <ele>63.5843506</ele>
        <time>2014-12-11T14:59:47Z</time>
      </trkpt>
      <trkpt lat="44.22462" lon="0.67278">
        <ele>64.5456543</ele>
        <time>2014-12-11T15:00:00Z</time>
      </trkpt>
      <trkpt lat="44.22454" lon="0.67284">
        <ele>65.5070801</ele>
        <time>2014-12-11T15:00:16Z</time>
      </trkpt>
      <trkpt lat="44.22448" lon="0.67292">
        <ele>68.3908691</ele>
        <time>2014-12-11T15:00:29Z</time>
      </trkpt>
      <trkpt lat="44.22447" lon="0.67298">
        <ele>69.8328857</ele>
        <time>2014-12-11T15:00:34Z</time>
      </trkpt>
      <trkpt lat="44.2244" lon="0.67316">
        <ele>70.7941895</ele>
        <time>2014-12-11T15:00:53Z</time>
      </trkpt>
      <trkpt lat="44.22431" lon="0.67331">
        <ele>71.2749023</ele>
        <time>2014-12-11T15:01:13Z</time>
      </trkpt>
      <trkpt lat="44.22426" lon="0.67344">
        <ele>73.1976318</ele>
        <time>2014-12-11T15:01:30Z</time>
      </trkpt>
      <trkpt lat="44.22422" lon="0.67355">
        <ele>77.0428467</ele>
        <time>2014-12-11T15:01:47Z</time>
      </trkpt>
      <trkpt lat="44.22417" lon="0.67374">
        <ele>76.5621338</ele>
        <time>2014-12-11T15:02:06Z</time>
      </trkpt>
      <trkpt lat="44.22412" lon="0.67392">
        <ele>78.9654541</ele>
        <time>2014-12-11T15:02:23Z</time>
      </trkpt>
      <trkpt lat="44.22412" lon="0.67394">
        <ele>78.9654541</ele>
        <time>2014-12-11T15:02:24Z</time>
      </trkpt>
      <trkpt lat="44.22417" lon="0.67427">
        <ele>84.7333984</ele>
        <time>2014-12-11T15:02:45Z</time>
      </trkpt>
      <trkpt lat="44.22418" lon="0.67461">
        <ele>90.9819336</ele>
        <time>2014-12-11T15:03:06Z</time>
      </trkpt>
      <trkpt lat="44.2242" lon="0.67477">
        <ele>94.3465576</ele>
        <time>2014-12-11T15:03:24Z</time>
      </trkpt>
      <trkpt lat="44.22418" lon="0.67479">
        <ele>95.3077393</ele>
        <time>2014-12-11T15:03:58Z</time>
      </trkpt>
      <trkpt lat="44.22421" lon="0.67488">
        <ele>94.3465576</ele>
        <time>2014-12-11T15:04:11Z</time>
      </trkpt>
      <trkpt lat="44.22426" lon="0.67503">
        <ele>91.9432373</ele>
        <time>2014-12-11T15:04:22Z</time>
      </trkpt>
      <trkpt lat="44.22431" lon="0.67537">
        <ele>88.0980225</ele>
        <time>2014-12-11T15:04:45Z</time>
      </trkpt>
      <trkpt lat="44.22434" lon="0.67561">
        <ele>88.5787354</ele>
        <time>2014-12-11T15:05:03Z</time>
      </trkpt>
      <trkpt lat="44.22443" lon="0.676">
        <ele>86.175293</ele>
        <time>2014-12-11T15:05:29Z</time>
      </trkpt>
      <trkpt lat="44.22452" lon="0.67626">
        <ele>84.2526855</ele>
        <time>2014-12-11T15:05:47Z</time>
      </trkpt>
      <trkpt lat="44.22465" lon="0.67654">
        <ele>83.2913818</ele>
        <time>2014-12-11T15:06:07Z</time>
      </trkpt>
      <trkpt lat="44.22467" lon="0.67658">
        <ele>83.7719727</ele>
        <time>2014-12-11T15:06:10Z</time>
      </trkpt>
      <trkpt lat="44.22475" lon="0.67682">
        <ele>87.1365967</ele>
        <time>2014-12-11T15:06:25Z</time>
      </trkpt>
      <trkpt lat="44.22487" lon="0.67707">
        <ele>91.4625244</ele>
        <time>2014-12-11T15:06:44Z</time>
      </trkpt>
      <trkpt lat="44.22499" lon="0.67733">
        <ele>94.8271484</ele>
        <time>2014-12-11T15:07:03Z</time>
      </trkpt>
      <trkpt lat="44.22514" lon="0.67755">
        <ele>97.7111816</ele>
        <time>2014-12-11T15:07:22Z</time>
      </trkpt>
      <trkpt lat="44.2253" lon="0.67772">
        <ele>102.0371094</ele>
        <time>2014-12-11T15:07:42Z</time>
      </trkpt>
      <trkpt lat="44.22543" lon="0.6779">
        <ele>106.8436279</ele>
        <time>2014-12-11T15:08:00Z</time>
      </trkpt>
      <trkpt lat="44.22554" lon="0.67809">
        <ele>106.8436279</ele>
        <time>2014-12-11T15:08:16Z</time>
      </trkpt>
      <trkpt lat="44.22569" lon="0.67838">
        <ele>102.5177002</ele>
        <time>2014-12-11T15:08:41Z</time>
      </trkpt>
      <trkpt lat="44.22578" lon="0.67865">
        <ele>96.7498779</ele>
        <time>2014-12-11T15:09:03Z</time>
      </trkpt>
      <trkpt lat="44.22586" lon="0.67898">
        <ele>89.0593262</ele>
        <time>2014-12-11T15:09:26Z</time>
      </trkpt>
      <trkpt lat="44.22587" lon="0.67905">
        <ele>86.6560059</ele>
        <time>2014-12-11T15:09:32Z</time>
      </trkpt>
      <trkpt lat="44.226" lon="0.67923">
        <ele>83.7719727</ele>
        <time>2014-12-11T15:09:49Z</time>
      </trkpt>
      <trkpt lat="44.22605" lon="0.67932">
        <ele>83.2913818</ele>
        <time>2014-12-11T15:09:56Z</time>
      </trkpt>
      <trkpt lat="44.22614" lon="0.67954">
        <ele>81.8493652</ele>
        <time>2014-12-11T15:10:12Z</time>
      </trkpt>
      <trkpt lat="44.2262" lon="0.67977">
        <ele>78.9654541</ele>
        <time>2014-12-11T15:10:27Z</time>
      </trkpt>
      <trkpt lat="44.22621" lon="0.67979">
        <ele>78.9654541</ele>
        <time>2014-12-11T15:10:28Z</time>
      </trkpt>
      <trkpt lat="44.22629" lon="0.68014">
        <ele>77.5234375</ele>
        <time>2014-12-11T15:10:51Z</time>
      </trkpt>
      <trkpt lat="44.22642" lon="0.68041">
        <ele>78.4847412</ele>
        <time>2014-12-11T15:11:15Z</time>
      </trkpt>
      <trkpt lat="44.22656" lon="0.68054">
        <ele>80.4074707</ele>
        <time>2014-12-11T15:11:29Z</time>
      </trkpt>
      <trkpt lat="44.22656" lon="0.68055">
        <ele>80.4074707</ele>
        <time>2014-12-11T15:11:30Z</time>
      </trkpt>
      <trkpt lat="44.22669" lon="0.68059">
        <ele>81.8493652</ele>
        <time>2014-12-11T15:11:46Z</time>
      </trkpt>
      <trkpt lat="44.22679" lon="0.68061">
        <ele>84.7333984</ele>
        <time>2014-12-11T15:12:03Z</time>
      </trkpt>
      <trkpt lat="44.22697" lon="0.68071">
        <ele>86.6560059</ele>
        <time>2014-12-11T15:12:22Z</time>
      </trkpt>
      <trkpt lat="44.22707" lon="0.68077">
        <ele>86.6560059</ele>
        <time>2014-12-11T15:12:36Z</time>
      </trkpt>
      <trkpt lat="44.2272" lon="0.6808">
        <ele>86.6560059</ele>
        <time>2014-12-11T15:12:53Z</time>
      </trkpt>
      <trkpt lat="44.2274" lon="0.68091">
        <ele>89.539917</ele>
        <time>2014-12-11T15:13:10Z</time>
      </trkpt>
      <trkpt lat="44.22752" lon="0.681">
        <ele>88.5787354</ele>
        <time>2014-12-11T15:13:26Z</time>
      </trkpt>
      <trkpt lat="44.22768" lon="0.68119">
        <ele>90.0206299</ele>
        <time>2014-12-11T15:13:44Z</time>
      </trkpt>
      <trkpt lat="44.22779" lon="0.68125">
        <ele>89.539917</ele>
        <time>2014-12-11T15:13:57Z</time>
      </trkpt>
      <trkpt lat="44.22793" lon="0.68143">
        <ele>84.2526855</ele>
        <time>2014-12-11T15:14:16Z</time>
      </trkpt>
      <trkpt lat="44.22804" lon="0.68158">
        <ele>80.4074707</ele>
        <time>2014-12-11T15:14:33Z</time>
      </trkpt>
      <trkpt lat="44.22816" lon="0.68175">
        <ele>80.4074707</ele>
        <time>2014-12-11T15:14:50Z</time>
      </trkpt>
      <trkpt lat="44.22818" lon="0.68187">
        <ele>78.4847412</ele>
        <time>2014-12-11T15:15:04Z</time>
      </trkpt>
      <trkpt lat="44.22821" lon="0.68196">
        <ele>79.9266357</ele>
        <time>2014-12-11T15:15:20Z</time>
      </trkpt>
      <trkpt lat="44.22826" lon="0.68214">
        <ele>81.8493652</ele>
        <time>2014-12-11T15:15:35Z</time>
      </trkpt>
      <trkpt lat="44.22828" lon="0.68222">
        <ele>83.2913818</ele>
        <time>2014-12-11T15:15:51Z</time>
      </trkpt>
      <trkpt lat="44.22831" lon="0.68229">
        <ele>85.6945801</ele>
        <time>2014-12-11T15:16:09Z</time>
      </trkpt>
      <trkpt lat="44.22839" lon="0.68252">
        <ele>87.1365967</ele>
        <time>2014-12-11T15:16:27Z</time>
      </trkpt>
      <trkpt lat="44.22849" lon="0.68273">
        <ele>87.1365967</ele>
        <time>2014-12-11T15:16:43Z</time>
      </trkpt>
      <trkpt lat="44.22856" lon="0.68292">
        <ele>89.0593262</ele>
        <time>2014-12-11T15:16:59Z</time>
      </trkpt>
      <trkpt lat="44.22866" lon="0.68312">
        <ele>87.6171875</ele>
        <time>2014-12-11T15:17:15Z</time>
      </trkpt>
      <trkpt lat="44.2287" lon="0.6832">
        <ele>86.6560059</ele>
        <time>2014-12-11T15:17:21Z</time>
      </trkpt>
      <trkpt lat="44.22876" lon="0.6833">
        <ele>84.7333984</ele>
        <time>2014-12-11T15:17:30Z</time>
      </trkpt>
      <trkpt lat="44.2288" lon="0.68345">
        <ele>81.8493652</ele>
        <time>2014-12-11T15:17:40Z</time>
      </trkpt>
      <trkpt lat="44.22887" lon="0.6836">
        <ele>78.9654541</ele>
        <time>2014-12-11T15:17:52Z</time>
      </trkpt>
      <trkpt lat="44.22906" lon="0.68372">
        <ele>74.1588135</ele>
        <time>2014-12-11T15:18:10Z</time>
      </trkpt>
      <trkpt lat="44.22927" lon="0.68377">
        <ele>72.2362061</ele>
        <time>2014-12-11T15:18:29Z</time>
      </trkpt>
      <trkpt lat="44.22943" lon="0.68381">
        <ele>76.0814209</ele>
        <time>2014-12-11T15:18:45Z</time>
      </trkpt>
      <trkpt lat="44.22961" lon="0.68378">
        <ele>74.6395264</ele>
        <time>2014-12-11T15:19:02Z</time>
      </trkpt>
      <trkpt lat="44.22975" lon="0.68377">
        <ele>73.6782227</ele>
        <time>2014-12-11T15:19:15Z</time>
      </trkpt>
      <trkpt lat="44.22977" lon="0.68377">
        <ele>73.1976318</ele>
        <time>2014-12-11T15:19:17Z</time>
      </trkpt>
      <trkpt lat="44.2299" lon="0.68373">
        <ele>70.3134766</ele>
        <time>2014-12-11T15:19:30Z</time>
      </trkpt>
      <trkpt lat="44.23005" lon="0.68369">
        <ele>70.3134766</ele>
        <time>2014-12-11T15:19:45Z</time>
      </trkpt>
      <trkpt lat="44.23026" lon="0.68366">
        <ele>69.8328857</ele>
        <time>2014-12-11T15:20:02Z</time>
      </trkpt>
      <trkpt lat="44.23043" lon="0.6836">
        <ele>69.3522949</ele>
        <time>2014-12-11T15:20:20Z</time>
      </trkpt>
      <trkpt lat="44.23061" lon="0.68351">
        <ele>68.3908691</ele>
        <time>2014-12-11T15:20:38Z</time>
      </trkpt>
      <trkpt lat="44.23072" lon="0.68335">
        <ele>69.3522949</ele>
        <time>2014-12-11T15:20:54Z</time>
      </trkpt>
      <trkpt lat="44.23076" lon="0.68333">
        <ele>69.3522949</ele>
        <time>2014-12-11T15:21:00Z</time>
      </trkpt>
      <trkpt lat="44.23093" lon="0.68324">
        <ele>70.3134766</ele>
        <time>2014-12-11T15:21:15Z</time>
      </trkpt>
      <trkpt lat="44.23115" lon="0.68304">
        <ele>69.8328857</ele>
        <time>2014-12-11T15:21:36Z</time>
      </trkpt>
      <trkpt lat="44.23123" lon="0.68293">
        <ele>68.3908691</ele>
        <time>2014-12-11T15:21:48Z</time>
      </trkpt>
      <trkpt lat="44.2313" lon="0.68267">
        <ele>66.4682617</ele>
        <time>2014-12-11T15:22:07Z</time>
      </trkpt>
      <trkpt lat="44.23129" lon="0.68265">
        <ele>66.9489746</ele>
        <time>2014-12-11T15:22:09Z</time>
      </trkpt>
      <trkpt lat="44.23132" lon="0.68256">
        <ele>66.4682617</ele>
        <time>2014-12-11T15:22:15Z</time>
      </trkpt>
      <trkpt lat="44.23135" lon="0.68241">
        <ele>65.9876709</ele>
        <time>2014-12-11T15:22:25Z</time>
      </trkpt>
      <trkpt lat="44.23143" lon="0.68237">
        <ele>64.5456543</ele>
        <time>2014-12-11T15:22:40Z</time>
      </trkpt>
      <trkpt lat="44.23146" lon="0.68241">
        <ele>64.5456543</ele>
        <time>2014-12-11T15:22:45Z</time>
      </trkpt>
      <trkpt lat="44.2316" lon="0.68246">
        <ele>60.7003174</ele>
        <time>2014-12-11T15:23:01Z</time>
      </trkpt>
      <trkpt lat="44.23165" lon="0.68249">
        <ele>57.8165283</ele>
        <time>2014-12-11T15:23:08Z</time>
      </trkpt>
      <trkpt lat="44.23172" lon="0.68255">
        <ele>52.048584</ele>
        <time>2014-12-11T15:23:23Z</time>
      </trkpt>
      <trkpt lat="44.23178" lon="0.68256">
        <ele>50.6065674</ele>
        <time>2014-12-11T15:23:34Z</time>
      </trkpt>
      <trkpt lat="44.23197" lon="0.68239">
        <ele>51.0871582</ele>
        <time>2014-12-11T15:23:53Z</time>
      </trkpt>
      <trkpt lat="44.23212" lon="0.68235">
        <ele>51.0871582</ele>
        <time>2014-12-11T15:24:06Z</time>
      </trkpt>
      <trkpt lat="44.23226" lon="0.68225">
        <ele>52.5291748</ele>
        <time>2014-12-11T15:24:23Z</time>
      </trkpt>
      <trkpt lat="44.23234" lon="0.68224">
        <ele>53.9711914</ele>
        <time>2014-12-11T15:24:32Z</time>
      </trkpt>
      <trkpt lat="44.23239" lon="0.68229">
        <ele>53.9711914</ele>
        <time>2014-12-11T15:24:39Z</time>
      </trkpt>
      <trkpt lat="44.23251" lon="0.68238">
        <ele>53.9711914</ele>
        <time>2014-12-11T15:24:55Z</time>
      </trkpt>
      <trkpt lat="44.23251" lon="0.68252">
        <ele>53.0097656</ele>
        <time>2014-12-11T15:25:05Z</time>
      </trkpt>
      <trkpt lat="44.23261" lon="0.68263">
        <ele>53.4904785</ele>
        <time>2014-12-11T15:25:23Z</time>
      </trkpt>
      <trkpt lat="44.23263" lon="0.6826">
        <ele>51.5678711</ele>
        <time>2014-12-11T15:25:41Z</time>
      </trkpt>
      <trkpt lat="44.23265" lon="0.68261">
        <ele>51.5678711</ele>
        <time>2014-12-11T15:25:44Z</time>
      </trkpt>
      <trkpt lat="44.23265" lon="0.68265">
        <ele>50.1259766</ele>
        <time>2014-12-11T15:25:47Z</time>
      </trkpt>
      <trkpt lat="44.23267" lon="0.68271">
        <ele>51.0871582</ele>
        <time>2014-12-11T15:25:54Z</time>
      </trkpt>
      <trkpt lat="44.23271" lon="0.68281">
        <ele>50.6065674</ele>
        <time>2014-12-11T15:26:06Z</time>
      </trkpt>
      <trkpt lat="44.2327" lon="0.68282">
        <ele>50.6065674</ele>
        <time>2014-12-11T15:26:16Z</time>
      </trkpt>
    </trkseg>
  </trk>
</gpx>